createdAt,value
2023-05-09T00:02:10.024Z,100054.31
2023-05-09T00:04:42.505Z,100053.81
2023-05-09T00:07:14.368Z,100048.50
2023-05-09T00:09:46.070Z,100049.34
2023-05-09T00:12:17.756Z,100052.00
2023-05-09T00:14:51.756Z,100045.88
2023-05-09T00:17:24.882Z,100048.16
2023-05-09T00:19:56.609Z,100051.25
2023-05-09T00:22:28.294Z,100048.06
2023-05-09T00:25:00.047Z,100044.06
2023-05-09T00:27:31.831Z,100044.53
2023-05-09T00:30:05.085Z,100039.25
2023-05-09T00:32:37.315Z,100042.47
2023-05-09T00:35:10.297Z,100036.22
2023-05-09T00:37:42.111Z,100040.13
2023-05-09T00:40:14.064Z,100039.13
2023-05-09T00:42:45.826Z,100033.34
2023-05-09T00:45:17.697Z,100038.63
2023-05-09T00:47:49.764Z,100036.22
2023-05-09T00:50:21.999Z,100032.25
2023-05-09T00:52:53.838Z,100035.84
2023-05-09T00:55:26.610Z,100034.06
2023-05-09T00:57:58.588Z,100026.97
2023-05-09T01:00:30.488Z,100026.00
2023-05-09T01:03:02.785Z,100025.28
2023-05-09T01:05:52.061Z,100028.06
2023-05-09T01:08:38.381Z,100015.81
2023-05-09T01:11:21.550Z,100021.41
2023-05-09T01:14:15.797Z,100018.84
2023-05-09T01:17:01.958Z,100023.56
2023-05-09T01:20:13.797Z,100022.72
2023-05-09T01:22:55.607Z,100017.44
2023-05-09T01:25:49.227Z,100013.31
2023-05-09T01:28:34.432Z,100020.91
2023-05-09T01:31:08.410Z,100008.69
2023-05-09T01:33:42.654Z,100008.19
2023-05-09T01:36:18.083Z,100016.22
2023-05-09T01:38:52.696Z,100019.03
2023-05-09T01:41:30.541Z,100019.03
2023-05-09T01:44:05.334Z,100015.72
2023-05-09T01:46:38.235Z,100013.66
2023-05-09T01:49:11.847Z,100019.75
2023-05-09T01:51:45.061Z,100013.59
2023-05-09T01:54:17.934Z,100006.13
2023-05-09T01:56:49.905Z,100005.94
2023-05-09T01:59:23.338Z,100005.16
2023-05-09T02:01:56.376Z,100004.72
2023-05-09T02:04:29.353Z,100003.38
2023-05-09T02:07:02.598Z,99997.69
2023-05-09T02:09:34.604Z,99993.69
2023-05-09T02:12:07.045Z,99992.88
2023-05-09T02:14:38.881Z,99993.69
2023-05-09T02:17:11.413Z,99993.00
2023-05-09T02:19:44.401Z,99987.88
2023-05-09T02:22:16.267Z,99996.06
2023-05-09T02:24:48.137Z,99989.41
2023-05-09T02:27:21.739Z,99978.19
2023-05-09T02:29:57.538Z,99978.34
2023-05-09T02:32:32.477Z,99982.94
2023-05-09T02:35:06.551Z,99981.28
2023-05-09T02:37:38.936Z,99983.91
2023-05-09T02:40:12.464Z,99977.53
2023-05-09T02:42:44.182Z,99975.50
2023-05-09T02:45:16.080Z,99977.59
2023-05-09T02:47:48.044Z,99981.38
2023-05-09T02:50:20.046Z,99981.06
2023-05-09T02:52:51.978Z,99981.75
2023-05-09T02:55:23.857Z,99983.44
2023-05-09T02:58:09.381Z,99975.00
2023-05-09T03:00:48.351Z,99983.28
2023-05-09T03:03:22.157Z,99971.78
2023-05-09T03:05:55.268Z,99976.50
2023-05-09T03:08:27.186Z,99972.38
2023-05-09T03:10:59.692Z,99980.50
2023-05-09T03:13:31.556Z,99979.41
2023-05-09T03:16:03.762Z,99974.16
2023-05-09T03:18:35.598Z,99974.44
2023-05-09T03:21:07.396Z,99978.72
2023-05-09T03:23:41.091Z,99969.16
2023-05-09T03:26:13.774Z,99977.31
2023-05-09T03:28:46.473Z,99968.72
2023-05-09T03:31:19.422Z,99970.53
2023-05-09T03:33:51.313Z,99971.22
2023-05-09T03:36:23.662Z,99973.28
2023-05-09T03:38:55.782Z,99969.69
2023-05-09T03:41:28.476Z,99968.88
2023-05-09T03:44:01.936Z,99972.47
2023-05-09T03:46:33.802Z,99969.00
2023-05-09T03:49:06.045Z,99963.59
2023-05-09T03:51:41.315Z,99968.88
2023-05-09T03:54:17.908Z,99964.69
2023-05-09T03:56:49.655Z,99967.75
2023-05-09T03:59:21.577Z,99968.16
2023-05-09T04:01:54.001Z,99961.66
2023-05-09T04:04:28.417Z,99964.84
2023-05-09T04:07:01.099Z,99974.41
2023-05-09T04:09:32.998Z,99970.09
2023-05-09T04:12:05.309Z,99965.78
2023-05-09T04:14:38.896Z,99963.31
2023-05-09T04:17:10.835Z,99959.69
2023-05-09T04:19:42.773Z,99959.69
2023-05-09T04:22:14.703Z,99968.03
2023-05-09T04:24:46.554Z,99961.38
2023-05-09T04:27:18.683Z,99965.03
2023-05-09T04:29:51.631Z,99965.44
2023-05-09T04:32:23.485Z,99959.22
2023-05-09T04:34:56.056Z,99963.75
2023-05-09T04:37:32.792Z,99956.00
2023-05-09T04:40:09.369Z,99952.81
2023-05-09T04:42:48.332Z,99962.22
2023-05-09T04:45:23.433Z,99962.75
2023-05-09T04:47:56.032Z,99959.63
2023-05-09T04:50:28.188Z,99956.38
2023-05-09T04:52:59.982Z,99945.09
2023-05-09T04:55:32.266Z,99957.91
2023-05-09T04:58:04.036Z,99942.13
2023-05-09T05:00:36.232Z,99947.84
2023-05-09T05:03:08.861Z,99946.72
2023-05-09T05:05:41.704Z,99946.38
2023-05-09T05:08:13.857Z,99947.72
2023-05-09T05:10:49.023Z,99936.78
2023-05-09T05:13:21.930Z,99947.63
2023-05-09T05:15:59.077Z,99947.06
2023-05-09T05:18:31.100Z,99949.19
2023-05-09T05:21:03.628Z,99950.56
2023-05-09T05:23:35.389Z,99938.25
2023-05-09T05:26:07.908Z,99944.91
2023-05-09T05:28:40.979Z,99946.75
2023-05-09T05:31:12.905Z,99941.59
2023-05-09T05:33:44.781Z,99941.06
2023-05-09T05:36:16.558Z,99938.16
2023-05-09T05:38:48.343Z,99941.06
2023-05-09T05:41:20.904Z,99937.09
2023-05-09T05:43:54.521Z,99933.78
2023-05-09T05:46:29.216Z,99929.16
2023-05-09T05:49:01.193Z,99927.84
2023-05-09T05:51:33.442Z,99925.72
2023-05-09T05:54:06.137Z,99917.56
2023-05-09T05:56:38.964Z,99923.03
2023-05-09T05:59:13.199Z,99913.88
2023-05-09T06:01:45.556Z,99918.69
2023-05-09T06:04:17.833Z,99914.69
2023-05-09T06:06:49.707Z,99921.97
2023-05-09T06:09:22.068Z,99910.53
2023-05-09T06:11:54.148Z,99917.88
2023-05-09T06:14:26.255Z,99918.81
2023-05-09T06:16:59.270Z,99907.63
2023-05-09T06:19:34.367Z,99901.75
2023-05-09T06:22:06.217Z,99911.50
2023-05-09T06:24:38.143Z,99899.91
2023-05-09T06:27:09.986Z,99895.03
2023-05-09T06:29:41.682Z,99888.72
2023-05-09T06:32:13.388Z,99905.13
2023-05-09T06:34:45.339Z,99895.69
2023-05-09T06:37:17.109Z,99897.63
2023-05-09T06:39:50.327Z,99889.53
2023-05-09T06:42:22.035Z,99887.56
2023-05-09T06:44:54.199Z,99879.00
2023-05-09T06:47:26.204Z,99873.47
2023-05-09T06:49:57.949Z,99869.34
2023-05-09T06:52:30.365Z,99862.41
2023-05-09T06:55:02.384Z,99868.22
2023-05-09T06:57:34.189Z,99865.50
2023-05-09T07:00:06.824Z,99862.69
2023-05-09T07:02:41.738Z,99860.78
2023-05-09T07:05:14.189Z,99852.84
2023-05-09T07:07:46.193Z,99852.19
2023-05-09T07:10:17.978Z,99851.97
2023-05-09T07:12:50.742Z,99849.25
2023-05-09T07:15:32.902Z,99841.88
2023-05-09T07:18:12.088Z,99821.66
2023-05-09T07:20:44.878Z,99830.09
2023-05-09T07:23:16.746Z,99839.81
2023-05-09T07:25:48.643Z,99837.97
2023-05-09T07:28:20.985Z,99832.31
2023-05-09T07:30:55.068Z,99833.56
2023-05-09T07:33:26.936Z,99829.28
2023-05-09T07:35:59.979Z,99817.09
2023-05-09T07:38:31.760Z,99818.09
2023-05-09T07:41:03.549Z,99810.09
2023-05-09T07:43:35.370Z,99811.97
2023-05-09T07:46:07.279Z,99804.94
2023-05-09T07:48:39.242Z,99805.38
2023-05-09T07:51:11.020Z,99803.94
2023-05-09T07:53:42.695Z,99799.19
2023-05-09T07:56:14.520Z,99793.63
2023-05-09T07:58:46.290Z,99784.56
2023-05-09T08:01:19.324Z,99773.28
2023-05-09T08:03:51.234Z,99766.91
2023-05-09T08:06:25.135Z,99776.69
2023-05-09T08:08:56.888Z,99762.72
2023-05-09T08:11:29.046Z,99767.53
2023-05-09T08:14:00.807Z,99758.50
2023-05-09T08:16:32.676Z,99767.06
2023-05-09T08:19:04.525Z,99761.97
2023-05-09T08:21:36.481Z,99762.56
2023-05-09T08:24:09.693Z,99759.34
2023-05-09T08:26:41.492Z,99751.31
2023-05-09T08:29:13.258Z,99759.91
2023-05-09T08:31:45.148Z,99756.44
2023-05-09T08:34:16.900Z,99762.63
2023-05-09T08:36:51.426Z,99752.41
2023-05-09T08:39:23.155Z,99754.97
2023-05-09T08:41:59.064Z,99752.00
2023-05-09T08:44:32.151Z,99744.66
2023-05-09T08:47:04.809Z,99742.19
2023-05-09T08:49:36.756Z,99744.00
2023-05-09T08:52:08.962Z,99729.59
2023-05-09T08:54:40.765Z,99745.84
2023-05-09T08:57:13.419Z,99724.69
2023-05-09T08:59:46.565Z,99713.09
2023-05-09T09:02:19.447Z,99716.88
2023-05-09T09:04:51.413Z,99731.38
2023-05-09T09:07:25.790Z,99728.09
2023-05-09T09:09:58.898Z,99712.88
2023-05-09T09:12:31.696Z,99708.81
2023-05-09T09:15:05.818Z,99709.59
2023-05-09T09:17:42.849Z,99702.47
2023-05-09T09:20:16.649Z,99704.91
2023-05-09T09:22:51.680Z,99693.13
2023-05-09T09:25:23.450Z,99694.53
2023-05-09T09:27:55.504Z,99691.75
2023-05-09T09:30:27.582Z,99692.03
2023-05-09T09:33:00.579Z,99694.44
2023-05-09T09:35:39.533Z,99674.03
2023-05-09T09:38:11.564Z,99674.88
2023-05-09T09:41:03.812Z,99672.91
2023-05-09T09:43:35.762Z,99673.59
2023-05-09T09:46:07.810Z,99682.22
2023-05-09T09:48:39.991Z,99673.09
2023-05-09T09:51:13.035Z,99661.00
2023-05-09T09:53:45.382Z,99647.44
2023-05-09T09:56:17.249Z,99642.44
2023-05-09T09:58:49.277Z,99640.00
2023-05-09T10:01:21.212Z,99637.16
2023-05-09T10:03:55.801Z,99643.50
2023-05-09T10:06:27.676Z,99634.00
2023-05-09T10:08:59.654Z,99628.69
2023-05-09T10:11:32.874Z,99615.78
2023-05-09T10:14:04.743Z,99610.75
2023-05-09T10:16:43.701Z,99612.38
2023-05-09T10:19:19.173Z,99622.66
2023-05-09T10:21:55.909Z,99617.19
2023-05-09T10:24:39.839Z,99618.69
2023-05-09T10:27:13.013Z,99631.56
2023-05-09T10:29:49.325Z,99610.59
2023-05-09T10:32:27.212Z,99618.19
2023-05-09T10:35:08.322Z,99595.06
2023-05-09T10:37:41.046Z,99590.81
2023-05-09T10:40:15.793Z,99590.94
2023-05-09T10:42:47.939Z,99584.00
2023-05-09T10:45:21.905Z,99588.84
2023-05-09T10:47:56.607Z,99575.75
2023-05-09T10:50:28.642Z,99564.66
2023-05-09T10:53:04.002Z,99557.00
2023-05-09T10:55:56.155Z,99560.66
2023-05-09T10:58:37.540Z,99561.13
2023-05-09T11:01:10.866Z,99567.63
2023-05-09T11:04:02.312Z,99536.97
2023-05-09T11:06:55.159Z,99540.25
2023-05-09T11:09:33.427Z,99537.22
2023-05-09T11:12:05.587Z,99529.44
2023-05-09T11:14:56.116Z,99539.47
2023-05-09T11:17:30.620Z,99522.34
2023-05-09T11:20:06.870Z,99522.22
2023-05-09T11:22:42.034Z,99510.31
2023-05-09T11:25:15.480Z,99513.28
2023-05-09T11:27:49.901Z,99522.88
2023-05-09T11:30:21.648Z,99502.56
2023-05-09T11:32:55.611Z,99505.69
2023-05-09T11:35:28.027Z,99504.84
2023-05-09T11:38:06.032Z,99492.66
2023-05-09T11:40:40.017Z,99494.69
2023-05-09T11:43:13.096Z,99484.63
2023-05-09T11:45:46.435Z,99479.81
2023-05-09T11:48:22.693Z,99476.31
2023-05-09T11:50:54.448Z,99467.47
2023-05-09T11:53:26.294Z,99460.84
2023-05-09T11:55:58.145Z,99449.41
2023-05-09T11:58:30.012Z,99454.78
2023-05-09T12:01:01.939Z,99446.94
2023-05-09T12:03:33.985Z,99458.28
2023-05-09T12:06:06.380Z,99441.47
2023-05-09T12:08:38.227Z,99458.59
2023-05-09T12:11:11.135Z,99422.13
2023-05-09T12:13:50.944Z,99422.44
2023-05-09T12:16:22.953Z,99421.72
2023-05-09T12:19:02.904Z,99407.63
2023-05-09T12:21:34.608Z,99403.53
2023-05-09T12:24:06.474Z,99406.00
2023-05-09T12:26:39.909Z,99401.56
2023-05-09T12:29:13.778Z,99399.72
2023-05-09T12:31:46.815Z,99411.25
2023-05-09T12:34:22.126Z,99392.31
2023-05-09T12:36:56.791Z,99385.56
2023-05-09T12:39:32.312Z,99384.97
2023-05-09T12:42:12.824Z,99381.31
2023-05-09T12:44:50.063Z,99382.91
2023-05-09T12:47:21.876Z,99367.44
2023-05-09T12:49:53.669Z,99361.53
2023-05-09T12:52:34.504Z,99363.50
2023-05-09T12:55:13.846Z,99367.72
2023-05-09T12:57:58.337Z,99360.13
2023-05-09T13:00:42.847Z,99346.59
2023-05-09T13:03:26.080Z,99357.31
2023-05-09T13:06:02.208Z,99349.97
2023-05-09T13:08:34.345Z,99364.44
2023-05-09T13:11:15.477Z,99335.25
2023-05-09T13:13:49.223Z,99347.41
2023-05-09T13:16:22.376Z,99342.84
2023-05-09T13:18:54.197Z,99337.91
2023-05-09T13:21:26.112Z,99347.13
2023-05-09T13:23:59.265Z,99332.56
2023-05-09T13:26:31.617Z,99331.72
2023-05-09T13:29:03.620Z,99318.88
2023-05-09T13:31:35.526Z,99310.59
2023-05-09T13:34:07.230Z,99301.50
2023-05-09T13:36:39.013Z,99301.41
2023-05-09T13:39:10.727Z,99288.44
2023-05-09T13:41:42.432Z,99287.28
2023-05-09T13:44:15.254Z,99298.16
2023-05-09T13:46:47.174Z,99302.16
2023-05-09T13:49:19.779Z,99303.28
2023-05-09T13:51:51.718Z,99283.69
2023-05-09T13:54:23.563Z,99279.06
2023-05-09T13:56:58.661Z,99271.97
2023-05-09T13:59:31.604Z,99271.84
2023-05-09T14:02:06.253Z,99305.50
2023-05-09T14:04:41.160Z,99267.72
2023-05-09T14:07:16.826Z,99253.09
2023-05-09T14:09:51.960Z,99238.56
2023-05-09T14:12:25.980Z,99237.06
2023-05-09T14:15:00.351Z,99242.22
2023-05-09T14:17:32.174Z,99228.81
2023-05-09T14:20:04.214Z,99230.00
2023-05-09T14:22:36.014Z,99221.38
2023-05-09T14:25:08.160Z,99242.13
2023-05-09T14:27:40.008Z,99225.09
2023-05-09T14:30:12.214Z,99240.25
2023-05-09T14:32:43.971Z,99226.84
2023-05-09T14:35:16.258Z,99215.44
2023-05-09T14:37:48.194Z,99224.53
2023-05-09T14:40:21.075Z,99228.25
2023-05-09T14:42:52.849Z,99213.41
2023-05-09T14:45:25.223Z,99202.13
2023-05-09T14:47:59.182Z,99208.06
2023-05-09T14:50:31.402Z,99202.81
2023-05-09T14:53:03.859Z,99211.91
2023-05-09T14:55:36.270Z,99190.00
2023-05-09T14:58:09.543Z,99183.59
2023-05-09T15:00:41.919Z,99190.00
2023-05-09T15:03:14.042Z,99174.50
2023-05-09T15:05:45.857Z,99196.19
2023-05-09T15:08:17.967Z,99193.25
2023-05-09T15:10:50.918Z,99184.25
2023-05-09T15:13:22.748Z,99180.31
2023-05-09T15:15:55.572Z,99163.53
2023-05-09T15:18:28.816Z,99163.03
2023-05-09T15:21:03.167Z,99176.59
2023-05-09T15:23:35.512Z,99171.22
2023-05-09T15:26:13.745Z,99167.03
2023-05-09T15:28:45.658Z,99163.19
2023-05-09T15:31:21.597Z,99158.78
2023-05-09T15:33:53.464Z,99164.50
2023-05-09T15:36:25.224Z,99152.97
2023-05-09T15:38:57.187Z,99169.22
2023-05-09T15:41:29.160Z,99179.44
2023-05-09T15:44:00.936Z,99153.31
2023-05-09T15:46:36.209Z,99164.75
2023-05-09T15:49:08.035Z,99153.81
2023-05-09T15:51:40.034Z,99154.94
2023-05-09T15:54:11.770Z,99163.00
2023-05-09T15:56:43.616Z,99158.81
2023-05-09T15:59:15.424Z,99142.97
2023-05-09T16:01:47.305Z,99148.69
2023-05-09T16:04:19.198Z,99143.63
2023-05-09T16:06:53.514Z,99147.91
2023-05-09T16:09:25.592Z,99152.19
2023-05-09T16:11:57.442Z,99150.47
2023-05-09T16:14:29.637Z,99129.88
2023-05-09T16:17:02.597Z,99128.34
2023-05-09T16:19:36.555Z,99145.38
2023-05-09T16:22:08.380Z,99130.72
2023-05-09T16:24:40.235Z,99134.47
2023-05-09T16:27:14.410Z,99123.53
2023-05-09T16:29:46.210Z,99118.63
2023-05-09T16:32:17.940Z,99124.41
2023-05-09T16:34:49.922Z,99115.78
2023-05-09T16:37:21.781Z,99124.31
2023-05-09T16:39:53.786Z,99110.47
2023-05-09T16:42:28.521Z,99114.19
2023-05-09T16:45:00.407Z,99110.34
2023-05-09T16:47:32.183Z,99124.03
2023-05-09T16:50:05.339Z,99101.34
2023-05-09T16:52:37.156Z,99107.50
2023-05-09T16:55:09.032Z,99107.59
2023-05-09T16:57:40.771Z,99115.13
2023-05-09T17:00:13.107Z,99106.97
2023-05-09T17:02:45.058Z,99112.66
2023-05-09T17:05:17.175Z,99117.97
2023-05-09T17:07:49.123Z,99098.00
2023-05-09T17:10:20.965Z,99087.47
2023-05-09T17:12:53.344Z,99092.72
2023-05-09T17:15:25.623Z,99108.25
2023-05-09T17:17:57.513Z,99094.22
2023-05-09T17:20:29.981Z,99102.34
2023-05-09T18:24:02.332Z,99089.81
2023-05-09T18:26:36.743Z,99087.44
2023-05-09T18:29:09.558Z,99083.78
2023-05-09T18:31:41.789Z,99094.09
2023-05-09T18:34:13.610Z,99084.47
2023-05-09T18:36:45.382Z,99086.44
2023-05-09T18:39:17.142Z,99084.63
2023-05-09T18:41:49.972Z,99085.88
2023-05-09T18:44:21.806Z,99086.31
2023-05-09T18:46:54.158Z,99093.72
2023-05-09T18:49:26.848Z,99092.50
2023-05-09T18:52:00.147Z,99091.53
2023-05-09T18:54:32.456Z,99092.38
2023-05-09T18:57:04.607Z,99096.50
2023-05-09T18:59:36.693Z,99097.50
2023-05-09T19:02:09.134Z,99095.22
2023-05-09T19:04:42.434Z,99093.38
2023-05-09T19:07:15.086Z,99097.47
2023-05-09T19:09:46.915Z,99097.88
2023-05-09T19:12:19.228Z,99096.22
2023-05-09T19:14:50.970Z,99098.31
2023-05-09T19:17:22.706Z,99093.00
2023-05-09T19:19:54.617Z,99094.84
2023-05-09T19:22:26.486Z,99091.81
2023-05-09T19:24:58.865Z,99100.63
2023-05-09T19:27:30.648Z,99097.75
2023-05-09T19:30:05.004Z,99094.28
2023-05-09T19:32:36.856Z,99092.03
2023-05-09T19:35:09.505Z,99088.09
2023-05-09T19:37:41.285Z,99084.22
2023-05-09T19:40:13.398Z,99087.53
2023-05-09T19:42:45.279Z,99085.25
2023-05-09T19:45:18.667Z,99075.47
2023-05-09T19:47:54.842Z,99081.00
2023-05-09T19:50:26.885Z,99082.41
2023-05-09T19:52:59.302Z,99084.06
2023-05-09T19:55:31.101Z,99084.06
2023-05-09T19:58:03.103Z,99085.50
2023-05-09T20:00:36.051Z,99074.47
2023-05-09T20:03:08.296Z,99077.13
2023-05-09T20:05:43.423Z,99084.88
2023-05-09T20:08:15.180Z,99073.44
2023-05-09T20:10:47.013Z,99075.28
2023-05-09T20:13:18.746Z,99082.59
2023-05-09T20:15:52.998Z,99076.88
2023-05-09T20:18:24.824Z,99075.41
2023-05-09T20:20:56.650Z,99067.84
2023-05-09T20:23:29.026Z,99066.19
2023-05-09T20:26:01.429Z,99061.28
2023-05-09T20:28:33.183Z,99055.53
2023-05-09T20:31:04.885Z,99054.94
2023-05-09T20:33:36.631Z,99059.63
2023-05-09T20:36:09.524Z,99058.16
2023-05-09T20:38:41.280Z,99054.22
2023-05-09T20:41:13.203Z,99057.91
2023-05-09T20:43:44.918Z,99050.31
2023-05-09T20:46:17.401Z,99048.28
2023-05-09T20:48:49.693Z,99049.25
2023-05-09T20:51:21.434Z,99051.06
2023-05-09T20:53:53.159Z,99042.66
2023-05-09T20:56:28.816Z,99046.50
2023-05-09T20:59:01.115Z,99045.22
2023-05-09T21:01:36.685Z,99037.81
2023-05-09T21:04:08.593Z,99042.06
2023-05-09T21:06:40.465Z,99032.88
2023-05-09T21:09:12.218Z,99025.50
2023-05-09T21:11:46.404Z,99027.25
2023-05-09T21:14:18.102Z,99020.47
2023-05-09T21:16:51.740Z,99018.59
2023-05-09T21:19:24.161Z,99012.41
2023-05-09T21:21:58.822Z,99010.69
2023-05-09T21:24:30.526Z,99012.69
2023-05-09T21:27:02.279Z,99006.28
2023-05-09T21:29:34.067Z,99001.56
2023-05-09T21:32:06.105Z,99004.78
2023-05-09T21:34:38.963Z,99001.72
2023-05-09T21:37:10.795Z,99001.06
2023-05-09T21:39:45.461Z,99007.56
2023-05-09T21:42:19.154Z,98997.53
2023-05-09T21:44:50.826Z,98999.78
2023-05-09T21:47:22.705Z,98993.00
2023-05-09T21:49:54.885Z,98985.25
2023-05-09T21:52:26.639Z,98983.16
2023-05-09T21:54:59.625Z,98984.31
2023-05-09T21:57:31.530Z,98986.72
2023-05-09T22:00:05.668Z,98984.63
2023-05-09T22:02:44.942Z,98971.94
2023-05-09T22:05:16.790Z,98977.44
2023-05-09T22:07:48.593Z,98973.91
2023-05-09T22:10:23.453Z,98976.28
2023-05-09T22:12:55.285Z,98979.16
2023-05-09T22:15:27.897Z,98973.13
2023-05-09T22:18:02.329Z,98969.06
2023-05-09T22:20:34.368Z,98972.69
2023-05-09T22:23:06.124Z,98974.44
2023-05-09T22:25:38.055Z,98964.59
2023-05-09T22:28:13.559Z,98959.69
2023-05-09T22:30:45.566Z,98963.09
2023-05-09T22:33:17.369Z,98960.44
2023-05-09T22:35:49.130Z,98958.41
2023-05-09T22:38:20.822Z,98969.19
2023-05-09T22:40:55.688Z,98958.97
2023-05-09T22:43:33.846Z,98960.38
2023-05-09T22:46:10.790Z,98963.38
2023-05-09T22:48:44.748Z,98961.25
2023-05-09T22:51:16.628Z,98958.34
2023-05-09T22:54:44.828Z,98950.59
2023-05-09T22:57:35.243Z,98945.94
2023-05-09T23:00:25.616Z,98949.31
2023-05-09T23:02:59.390Z,98946.78
2023-05-09T23:09:18.133Z,98942.13
2023-05-09T23:11:49.836Z,98928.81
2023-05-09T23:14:21.844Z,98934.50
2023-05-09T23:16:53.687Z,98941.97
2023-05-09T23:19:25.525Z,98936.88
2023-05-09T23:21:59.064Z,98933.97
2023-05-09T23:24:30.865Z,98930.41
2023-05-09T23:27:02.875Z,98936.41
2023-05-09T23:29:35.184Z,98925.56
2023-05-09T23:32:07.230Z,98930.38
2023-05-09T23:34:39.167Z,98924.66
2023-05-09T23:37:12.058Z,98919.69
2023-05-09T23:39:43.940Z,98927.19
2023-05-09T23:42:15.872Z,98915.78
2023-05-09T23:44:47.853Z,98916.34
2023-05-09T23:47:19.832Z,98914.88
2023-05-09T23:49:51.600Z,98900.94
2023-05-09T23:52:23.476Z,98901.94
2023-05-09T23:54:55.405Z,98898.47
2023-05-09T23:57:27.138Z,98907.75
2023-05-09T23:59:58.869Z,98900.47
